createdAt,value
2017-08-07T00:00:01.376Z,14.34
2017-08-07T00:00:06.206Z,14.29
2017-08-07T00:00:10.427Z,14.29
2017-08-07T00:00:14.904Z,14.26
2017-08-07T00:00:19.367Z,14.27
2017-08-07T00:00:23.717Z,14.27
2017-08-07T00:00:28.076Z,14.23
2017-08-07T00:00:32.551Z,14.35
2017-08-07T00:00:36.905Z,14.29
2017-08-07T00:00:41.382Z,14.29
2017-08-07T00:00:45.751Z,14.29
2017-08-07T00:00:50.227Z,14.29
2017-08-07T00:00:54.578Z,14.27
2017-08-07T00:00:58.820Z,14.29
2017-08-07T00:01:03.155Z,14.3
2017-08-07T00:01:07.510Z,14.29
2017-08-07T00:01:11.874Z,14.24
2017-08-07T00:01:16.118Z,14.27
2017-08-07T00:01:20.618Z,14.26
2017-08-07T00:01:24.973Z,14.24
2017-08-07T00:01:29.227Z,14.27
2017-08-07T00:01:33.571Z,14.27
2017-08-07T00:01:38.042Z,14.26
2017-08-07T00:01:42.521Z,14.24
2017-08-07T00:01:46.863Z,14.31
2017-08-07T00:01:51.309Z,14.31
2017-08-07T00:01:55.771Z,14.29
2017-08-07T00:02:00.245Z,14.3
2017-08-07T00:02:04.792Z,14.27
2017-08-07T00:02:09.261Z,14.3
2017-08-07T00:02:13.738Z,14.24
2017-08-07T00:02:18.203Z,14.27
2017-08-07T00:02:22.645Z,14.23
2017-08-07T00:02:26.988Z,14.23
2017-08-07T00:02:31.489Z,14.23
2017-08-07T00:02:35.593Z,14.21
2017-08-07T00:02:39.946Z,14.26
2017-08-07T00:02:44.303Z,14.21
2017-08-07T00:02:48.653Z,14.24
2017-08-07T00:02:52.993Z,14.29
2017-08-07T00:02:57.338Z,14.27
2017-08-07T00:03:01.679Z,14.2
2017-08-07T00:03:06.155Z,14.27
2017-08-07T00:03:10.627Z,14.29
2017-08-07T00:03:15.099Z,14.24
2017-08-07T00:03:19.580Z,14.26
2017-08-07T00:03:23.935Z,14.27
2017-08-07T00:03:28.312Z,14.27
2017-08-07T00:03:32.658Z,14.26
2017-08-07T00:03:37.121Z,14.2
2017-08-07T00:03:41.458Z,14.2
2017-08-07T00:03:45.914Z,14.26
2017-08-07T00:03:50.382Z,14.23
2017-08-07T00:03:54.726Z,14.19
2017-08-07T00:03:59.218Z,14.17
2017-08-07T00:04:03.676Z,14.23
2017-08-07T00:04:08.140Z,14.21
2017-08-07T00:04:12.388Z,14.27
2017-08-07T00:04:16.745Z,14.21
2017-08-07T00:04:21.089Z,14.2
2017-08-07T00:04:25.565Z,14.2
2017-08-07T00:04:29.906Z,14.26
2017-08-07T00:04:34.370Z,14.26
2017-08-07T00:04:38.823Z,14.21
2017-08-07T00:04:43.059Z,14.27
2017-08-07T00:04:47.539Z,14.34
2017-08-07T00:04:52.014Z,14.23
2017-08-07T00:04:56.467Z,14.34
2017-08-07T00:05:00.700Z,14.23
2017-08-07T00:05:05.316Z,14.26
2017-08-07T00:05:09.781Z,14.17
2017-08-07T00:05:14.250Z,14.23
2017-08-07T00:05:18.721Z,14.21
2017-08-07T00:05:23.180Z,14.21
2017-08-07T00:05:27.667Z,14.2
2017-08-07T00:05:32.154Z,14.19
2017-08-07T00:05:36.511Z,14.16
2017-08-07T00:05:40.745Z,14.29
2017-08-07T00:05:45.189Z,14.24
2017-08-07T00:05:49.418Z,14.2
2017-08-07T00:05:53.750Z,14.19
2017-08-07T00:05:58.240Z,14.23
2017-08-07T00:06:02.645Z,14.19
2017-08-07T00:06:06.876Z,14.17
2017-08-07T00:06:11.254Z,14.21
2017-08-07T00:06:15.359Z,14.21
2017-08-07T00:06:19.611Z,14.21
2017-08-07T00:06:23.970Z,14.27
2017-08-07T00:06:28.436Z,14.24
2017-08-07T00:06:32.899Z,14.16
2017-08-07T00:06:37.015Z,14.2
2017-08-07T00:06:41.252Z,14.19
2017-08-07T00:06:45.621Z,14.16
2017-08-07T00:06:50.090Z,14.2
2017-08-07T00:06:54.562Z,14.17
2017-08-07T00:06:59.026Z,14.2
2017-08-07T00:07:03.644Z,14.26
2017-08-07T00:07:08.098Z,14.13
2017-08-07T00:07:12.568Z,14.24
2017-08-07T00:07:17.040Z,14.16
2017-08-07T00:07:21.509Z,14.17
2017-08-07T00:07:25.971Z,14.21
2017-08-07T00:07:30.433Z,14.24
2017-08-07T00:07:34.770Z,14.19
2017-08-07T00:07:39.016Z,14.23
2017-08-07T00:07:43.485Z,14.17
2017-08-07T00:07:47.951Z,14.17
2017-08-07T00:07:52.427Z,14.19
2017-08-07T00:07:56.797Z,14.21
2017-08-07T00:08:01.285Z,14.21
2017-08-07T00:08:05.755Z,14.21
2017-08-07T00:08:10.121Z,14.2
2017-08-07T00:08:14.582Z,14.17
2017-08-07T00:08:19.054Z,14.2
2017-08-07T00:08:23.405Z,14.21
2017-08-07T00:08:27.871Z,14.2
2017-08-07T00:08:32.215Z,14.21
2017-08-07T00:08:36.582Z,14.26
2017-08-07T00:08:41.041Z,14.2
2017-08-07T00:08:45.387Z,14.26
2017-08-07T00:08:49.840Z,14.23
2017-08-07T00:08:54.323Z,14.21
2017-08-07T00:08:58.681Z,14.21
2017-08-07T00:09:02.898Z,14.24
2017-08-07T00:09:07.350Z,14.21
2017-08-07T00:09:11.809Z,14.21
2017-08-07T00:09:16.254Z,14.21
2017-08-07T00:09:20.707Z,14.26
2017-08-07T00:09:25.191Z,14.26
2017-08-07T00:09:29.674Z,14.23
2017-08-07T00:09:34.132Z,14.26
2017-08-07T00:09:38.479Z,14.2
2017-08-07T00:09:42.832Z,14.23
2017-08-07T00:09:47.167Z,14.21
2017-08-07T00:09:51.395Z,14.26
2017-08-07T00:09:55.771Z,14.26
2017-08-07T00:10:00.227Z,14.23
2017-08-07T00:10:04.581Z,14.13
2017-08-07T00:10:08.946Z,14.26
2017-08-07T00:10:13.417Z,14.17
2017-08-07T00:10:17.892Z,14.19
2017-08-07T00:10:22.356Z,14.2
2017-08-07T00:10:26.714Z,14.21
2017-08-07T00:10:31.165Z,14.24
2017-08-07T00:10:35.616Z,14.24
2017-08-07T00:10:39.866Z,14.19
2017-08-07T00:10:44.321Z,14.2
2017-08-07T00:10:48.679Z,14.2
2017-08-07T00:10:53.019Z,14.16
2017-08-07T00:10:57.358Z,14.29
2017-08-07T00:11:01.839Z,14.26
2017-08-07T00:11:06.309Z,14.21
2017-08-07T00:11:10.767Z,14.23
2017-08-07T00:11:15.107Z,14.2
2017-08-07T00:11:19.463Z,14.17
2017-08-07T00:11:23.927Z,14.23
2017-08-07T00:11:28.402Z,14.17
2017-08-07T00:11:32.759Z,14.24
2017-08-07T00:11:37.219Z,14.26
2017-08-07T00:11:41.670Z,14.21
2017-08-07T00:11:46.132Z,14.2
2017-08-07T00:11:50.608Z,14.26
2017-08-07T00:11:55.067Z,14.23
2017-08-07T00:11:59.521Z,14.23
2017-08-07T00:12:03.989Z,14.13
2017-08-07T00:12:08.324Z,14.26
2017-08-07T00:12:12.534Z,14.24
2017-08-07T00:12:16.757Z,14.24
2017-08-07T00:12:21.116Z,14.21
2017-08-07T00:12:25.565Z,14.21
2017-08-07T00:12:29.914Z,14.17
2017-08-07T00:12:34.298Z,14.26
2017-08-07T00:12:38.764Z,14.2
2017-08-07T00:12:43.243Z,14.2
2017-08-07T00:12:47.710Z,14.17
2017-08-07T00:12:52.073Z,14.13
2017-08-07T00:12:56.523Z,14.2
2017-08-07T00:13:00.981Z,14.26
2017-08-07T00:13:05.426Z,14.13
2017-08-07T00:13:09.891Z,14.24
2017-08-07T00:13:14.385Z,14.21
2017-08-07T00:13:18.729Z,14.17
2017-08-07T00:13:23.058Z,14.24
2017-08-07T00:13:27.401Z,14.24
2017-08-07T00:13:31.886Z,14.21
2017-08-07T00:13:36.231Z,14.23
2017-08-07T00:13:40.558Z,14.21
2017-08-07T00:13:45.026Z,14.19
2017-08-07T00:13:49.366Z,14.21
2017-08-07T00:13:53.690Z,14.24
2017-08-07T00:13:58.153Z,14.16
2017-08-07T00:14:02.520Z,14.24
2017-08-07T00:14:06.980Z,14.26
2017-08-07T00:14:11.332Z,14.23
2017-08-07T00:14:15.689Z,14.29
2017-08-07T00:14:19.912Z,14.2
2017-08-07T00:14:24.368Z,14.26
2017-08-07T00:14:28.742Z,14.27
2017-08-07T00:14:33.082Z,14.27
2017-08-07T00:14:37.552Z,14.24
2017-08-07T00:14:41.896Z,14.2
2017-08-07T00:14:46.254Z,14.2
2017-08-07T00:14:50.721Z,14.16
2017-08-07T00:14:55.193Z,14.21
2017-08-07T00:14:59.653Z,14.17
2017-08-07T00:15:03.990Z,14.21
2017-08-07T00:15:08.459Z,14.21
2017-08-07T00:15:12.935Z,14.21
2017-08-07T00:15:17.283Z,14.17
2017-08-07T00:15:21.765Z,14.17
2017-08-07T00:15:26.231Z,14.24
2017-08-07T00:15:30.711Z,14.12
2017-08-07T00:15:35.178Z,14.19
2017-08-07T00:15:39.648Z,14.17
2017-08-07T00:15:43.976Z,14.13
2017-08-07T00:15:48.426Z,14.16
2017-08-07T00:15:52.783Z,14.21
2017-08-07T00:15:57.275Z,14.17
2017-08-07T00:16:01.993Z,14.21
2017-08-07T00:16:06.446Z,14.2
2017-08-07T00:16:10.790Z,14.12
2017-08-07T00:16:15.025Z,14.12
2017-08-07T00:16:19.248Z,14.21
2017-08-07T00:16:23.701Z,14.12
2017-08-07T00:16:28.069Z,14.23
2017-08-07T00:16:32.416Z,14.12
2017-08-07T00:16:36.882Z,14.12
2017-08-07T00:16:41.337Z,14.24
2017-08-07T00:16:45.782Z,14.24
2017-08-07T00:16:50.133Z,14.17
2017-08-07T00:16:54.619Z,14.19
2017-08-07T00:16:59.082Z,14.23
2017-08-07T00:17:03.312Z,14.2
2017-08-07T00:17:07.781Z,14.12
2017-08-07T00:17:12.242Z,14.21
2017-08-07T00:17:16.708Z,14.17
2017-08-07T00:17:21.070Z,14.12
2017-08-07T00:17:25.541Z,14.13
2017-08-07T00:17:29.879Z,14.13
2017-08-07T00:17:34.113Z,14.17
2017-08-07T00:17:38.594Z,14.19
2017-08-07T00:17:43.057Z,14.16
2017-08-07T00:17:47.526Z,14.24
2017-08-07T00:17:51.892Z,14.17
2017-08-07T00:17:56.126Z,14.12
2017-08-07T00:18:00.582Z,14.16
2017-08-07T00:18:05.050Z,14.21
2017-08-07T00:18:09.508Z,14.23
2017-08-07T00:18:13.723Z,14.13
2017-08-07T00:18:17.961Z,14.17
2017-08-07T00:18:22.324Z,14.13
2017-08-07T00:18:26.787Z,14.16
2017-08-07T00:18:31.255Z,14.16
2017-08-07T00:18:35.731Z,14.23
2017-08-07T00:18:40.189Z,14.21
2017-08-07T00:18:44.551Z,14.17
2017-08-07T00:18:49.022Z,14.12
2017-08-07T00:18:53.483Z,14.2
2017-08-07T00:18:57.813Z,14.12
2017-08-07T00:19:02.485Z,14.13
2017-08-07T00:19:06.940Z,14.13
2017-08-07T00:19:11.410Z,14.16
2017-08-07T00:19:15.659Z,14.19
2017-08-07T00:19:20.122Z,14.24
2017-08-07T00:19:24.589Z,14.19
2017-08-07T00:19:28.800Z,14.23
2017-08-07T00:19:33.272Z,14.16
2017-08-07T00:19:37.616Z,14.24
2017-08-07T00:19:42.306Z,14.16
2017-08-07T00:19:46.780Z,14.16
2017-08-07T00:19:51.245Z,14.17
2017-08-07T00:19:55.710Z,14.17
2017-08-07T00:20:00.188Z,14.13
2017-08-07T00:20:04.435Z,14.17
2017-08-07T00:20:08.798Z,14.16
2017-08-07T00:20:13.152Z,14.12
2017-08-07T00:20:17.498Z,14.21
2017-08-07T00:20:21.850Z,14.21
2017-08-07T00:20:26.193Z,14.21
2017-08-07T00:20:30.558Z,14.13
2017-08-07T00:20:35.020Z,14.16
2017-08-07T00:20:39.485Z,14.21
2017-08-07T00:20:43.824Z,14.12
2017-08-07T00:20:48.173Z,14.21
2017-08-07T00:20:52.647Z,14.13
2017-08-07T00:20:57.122Z,14.12
2017-08-07T00:21:01.356Z,14.13
2017-08-07T00:21:05.837Z,14.09
2017-08-07T00:21:10.298Z,14.12
2017-08-07T00:21:14.648Z,14.17
2017-08-07T00:21:18.993Z,14.17
2017-08-07T00:21:23.328Z,14.12
2017-08-07T00:21:27.781Z,14.12
2017-08-07T00:21:32.243Z,14.24
2017-08-07T00:21:36.611Z,14.2
2017-08-07T00:21:41.075Z,14.17
2017-08-07T00:21:45.420Z,14.16
2017-08-07T00:21:49.886Z,14.2
2017-08-07T00:21:54.347Z,14.13
2017-08-07T00:21:58.701Z,14.16
2017-08-07T00:22:03.164Z,14.17
2017-08-07T00:22:07.406Z,14.12
2017-08-07T00:22:11.868Z,14.21
2017-08-07T00:22:16.337Z,14.13
2017-08-07T00:22:20.810Z,14.2
2017-08-07T00:22:25.178Z,14.21
2017-08-07T00:22:29.642Z,14.21
2017-08-07T00:22:33.993Z,14.12
2017-08-07T00:22:38.364Z,14.21
2017-08-07T00:22:42.827Z,14.17
2017-08-07T00:22:47.053Z,14.17
2017-08-07T00:22:51.540Z,14.13
2017-08-07T00:22:56.016Z,14.13
2017-08-07T00:23:00.468Z,14.16
2017-08-07T00:23:04.939Z,14.13
2017-08-07T00:23:09.413Z,14.13
2017-08-07T00:23:13.637Z,14.13
2017-08-07T00:23:18.104Z,14.11
2017-08-07T00:23:22.568Z,14.17
2017-08-07T00:23:26.903Z,14.13
2017-08-07T00:23:31.248Z,14.12
2017-08-07T00:23:35.704Z,14.12
2017-08-07T00:23:40.165Z,14.13
2017-08-07T00:23:44.614Z,14.17
2017-08-07T00:23:48.965Z,14.12
2017-08-07T00:23:53.446Z,14.12
2017-08-07T00:23:57.904Z,14.04
2017-08-07T00:24:02.332Z,14.13
2017-08-07T00:24:06.707Z,14.11
2017-08-07T00:24:11.161Z,14.13
2017-08-07T00:24:15.631Z,14.13
2017-08-07T00:24:19.972Z,14.04
2017-08-07T00:24:24.320Z,14.04
2017-08-07T00:24:28.665Z,14.13
2017-08-07T00:24:33.037Z,14.17
2017-08-07T00:24:37.498Z,14.13
2017-08-07T00:24:41.832Z,14.08
2017-08-07T00:24:46.311Z,14.05
2017-08-07T00:24:50.787Z,14.06
2017-08-07T00:24:55.253Z,14.16
2017-08-07T00:24:59.734Z,14.06
2017-08-07T00:25:04.101Z,14.2
2017-08-07T00:25:08.335Z,14.13
2017-08-07T00:25:12.814Z,14.17
2017-08-07T00:25:17.159Z,14.17
2017-08-07T00:25:21.620Z,14.17
2017-08-07T00:25:26.095Z,14.16
2017-08-07T00:25:30.464Z,14.04
2017-08-07T00:25:34.796Z,14.11
2017-08-07T00:25:39.245Z,14.08
2017-08-07T00:25:43.605Z,14.12
2017-08-07T00:25:47.949Z,14.12
2017-08-07T00:25:52.397Z,14.16
2017-08-07T00:25:56.874Z,14.12
2017-08-07T00:26:01.355Z,14.11
2017-08-07T00:26:05.685Z,14.13
2017-08-07T00:26:10.028Z,14.13
2017-08-07T00:26:14.508Z,14.02
2017-08-07T00:26:18.973Z,14.06
2017-08-07T00:26:23.421Z,14.12
2017-08-07T00:26:27.905Z,14.06
2017-08-07T00:26:32.377Z,14.06
2017-08-07T00:26:36.850Z,14.09
2017-08-07T00:26:41.313Z,14.04
2017-08-07T00:26:45.424Z,14.12
2017-08-07T00:26:49.773Z,14.09
2017-08-07T00:26:54.239Z,14.13
2017-08-07T00:26:58.708Z,14.12
2017-08-07T00:27:03.094Z,14.02
2017-08-07T00:27:07.444Z,14.11
2017-08-07T00:27:11.791Z,14.16
2017-08-07T00:27:16.025Z,14.16
2017-08-07T00:27:20.497Z,14.17
2017-08-07T00:27:24.610Z,14.04
2017-08-07T00:27:28.971Z,14.09
2017-08-07T00:27:33.437Z,14.04
2017-08-07T00:27:37.667Z,14.06
2017-08-07T00:27:42.135Z,14.11
2017-08-07T00:27:46.617Z,14.04
2017-08-07T00:27:51.092Z,14.06
2017-08-07T00:27:55.562Z,14.05
2017-08-07T00:27:59.916Z,14.02
2017-08-07T00:28:04.266Z,14.05
2017-08-07T00:28:08.614Z,14.04
2017-08-07T00:28:12.946Z,14.08
2017-08-07T00:28:17.402Z,14.05
2017-08-07T00:28:21.880Z,14.04
2017-08-07T00:28:26.228Z,14.08
2017-08-07T00:28:30.688Z,14.02
2017-08-07T00:28:35.150Z,14.04
2017-08-07T00:28:39.499Z,14.04
2017-08-07T00:28:43.853Z,14.11
2017-08-07T00:28:48.311Z,14.11
2017-08-07T00:28:52.803Z,14.12
2017-08-07T00:28:57.150Z,14.11
2017-08-07T00:29:01.918Z,14.06
2017-08-07T00:29:06.380Z,14.09
2017-08-07T00:29:10.850Z,14.09
2017-08-07T00:29:15.084Z,14.04
2017-08-07T00:29:19.429Z,14.06
2017-08-07T00:29:23.905Z,14.01
2017-08-07T00:29:28.362Z,14.05
2017-08-07T00:29:32.598Z,14.04
2017-08-07T00:29:36.934Z,14.16
2017-08-07T00:29:41.392Z,14.01
2017-08-07T00:29:45.848Z,14.01
2017-08-07T00:29:50.298Z,14.02
2017-08-07T00:29:54.652Z,14.01
2017-08-07T00:29:58.977Z,14.05
2017-08-07T00:30:03.626Z,14.04
2017-08-07T00:30:08.106Z,14.04
2017-08-07T00:30:12.108Z,14.09
2017-08-07T00:30:16.439Z,14.09
2017-08-07T00:30:20.903Z,14.04
2017-08-07T00:30:25.254Z,14.09
2017-08-07T00:30:29.583Z,14.04
2017-08-07T00:30:33.974Z,14.06
2017-08-07T00:30:38.335Z,14.09
2017-08-07T00:30:42.803Z,14.08
2017-08-07T00:30:47.255Z,14.08
2017-08-07T00:30:51.727Z,14.02
2017-08-07T00:30:56.088Z,14.04
2017-08-07T00:31:00.547Z,14.04
2017-08-07T00:31:05.023Z,14.04
2017-08-07T00:31:09.486Z,14.12
2017-08-07T00:31:13.940Z,14.04
2017-08-07T00:31:18.396Z,14.13
2017-08-07T00:31:22.761Z,14.06
2017-08-07T00:31:27.100Z,14.09
2017-08-07T00:31:31.573Z,14.11
2017-08-07T00:31:35.910Z,14.13
2017-08-07T00:31:40.404Z,14.09
2017-08-07T00:31:44.749Z,14.08
2017-08-07T00:31:49.221Z,14.01
2017-08-07T00:31:53.692Z,14.12
2017-08-07T00:31:58.148Z,14.13
2017-08-07T00:32:02.513Z,14.12
2017-08-07T00:32:06.999Z,14.06
2017-08-07T00:32:11.347Z,14.01
2017-08-07T00:32:15.816Z,14.04
2017-08-07T00:32:20.284Z,14.09
2017-08-07T00:32:24.761Z,14.04
2017-08-07T00:32:29.112Z,14.08
2017-08-07T00:32:33.373Z,14.12
2017-08-07T00:32:37.843Z,14.11
2017-08-07T00:32:42.313Z,14.09
2017-08-07T00:32:46.780Z,14.01
2017-08-07T00:32:50.995Z,14.11
2017-08-07T00:32:55.452Z,14.12
2017-08-07T00:32:59.907Z,14.09
2017-08-07T00:33:04.522Z,14.11
2017-08-07T00:33:08.991Z,14.12
2017-08-07T00:33:13.448Z,14.11
2017-08-07T00:33:17.915Z,14.09
2017-08-07T00:33:22.278Z,14.12
2017-08-07T00:33:26.734Z,14.08
2017-08-07T00:33:31.093Z,14.09
2017-08-07T00:33:35.565Z,14.05
2017-08-07T00:33:39.922Z,14.11
2017-08-07T00:33:44.153Z,14.12
2017-08-07T00:33:48.616Z,14.02
2017-08-07T00:33:53.109Z,14.11
2017-08-07T00:33:57.578Z,14.11
2017-08-07T00:34:02.109Z,14.06
2017-08-07T00:34:06.603Z,14.11
2017-08-07T00:34:11.065Z,14.11
2017-08-07T00:34:15.420Z,14.11
2017-08-07T00:34:19.902Z,14.04
2017-08-07T00:34:24.255Z,14.01
2017-08-07T00:34:28.714Z,14.11
2017-08-07T00:34:33.190Z,14.08
2017-08-07T00:34:37.545Z,13.99
2017-08-07T00:34:42.014Z,14.08
2017-08-07T00:34:46.377Z,14.11
2017-08-07T00:34:50.854Z,14.08
2017-08-07T00:34:55.318Z,14.12
2017-08-07T00:34:59.788Z,13.98
2017-08-07T00:35:04.202Z,14.09
2017-08-07T00:35:08.662Z,14.06
2017-08-07T00:35:12.892Z,14.05
2017-08-07T00:35:17.374Z,14.05
2017-08-07T00:35:21.824Z,14.06
2017-08-07T00:35:26.053Z,14.09
2017-08-07T00:35:30.526Z,14.02
2017-08-07T00:35:34.890Z,14.02
2017-08-07T00:35:39.361Z,14.02
2017-08-07T00:35:43.712Z,14.06
2017-08-07T00:35:48.178Z,14.06
2017-08-07T00:35:52.637Z,14.05
2017-08-07T00:35:56.970Z,14.05
2017-08-07T00:36:01.448Z,14.04
2017-08-07T00:36:05.793Z,14.05
2017-08-07T00:36:10.021Z,14.04
2017-08-07T00:36:14.369Z,14.02
2017-08-07T00:36:18.624Z,14.06
2017-08-07T00:36:23.076Z,13.98
2017-08-07T00:36:27.294Z,14.05
2017-08-07T00:36:31.755Z,14.05
2017-08-07T00:36:36.098Z,14.02
2017-08-07T00:36:40.549Z,14.08
2017-08-07T00:36:44.905Z,14.09
2017-08-07T00:36:49.371Z,14.04
2017-08-07T00:36:53.830Z,14.06
2017-08-07T00:36:58.293Z,14.02
2017-08-07T00:37:02.669Z,14.02
2017-08-07T00:37:07.022Z,13.99
2017-08-07T00:37:11.491Z,14.05
2017-08-07T00:37:15.853Z,14.02
2017-08-07T00:37:20.062Z,14.05
2017-08-07T00:37:24.518Z,14.05
2017-08-07T00:37:28.857Z,13.99
2017-08-07T00:37:33.210Z,14.02
2017-08-07T00:37:37.668Z,14.02
2017-08-07T00:37:42.021Z,14.02
2017-08-07T00:37:46.255Z,14.04
2017-08-07T00:37:50.701Z,14.06
2017-08-07T00:37:54.945Z,14.02
2017-08-07T00:37:59.405Z,14.01
2017-08-07T00:38:03.871Z,14.04
2017-08-07T00:38:08.333Z,14.02
2017-08-07T00:38:12.686Z,14.04
2017-08-07T00:38:17.162Z,14.02
2017-08-07T00:38:21.622Z,14.04
2017-08-07T00:38:25.966Z,14.02
2017-08-07T00:38:30.432Z,14.06
2017-08-07T00:38:34.906Z,14.02
2017-08-07T00:38:39.250Z,14.05
2017-08-07T00:38:43.595Z,14.08
2017-08-07T00:38:48.057Z,14.02
2017-08-07T00:38:52.531Z,14.04
2017-08-07T00:38:57.029Z,14.02
2017-08-07T00:39:01.495Z,14.04
2017-08-07T00:39:05.943Z,14.05
2017-08-07T00:39:10.397Z,14.05
2017-08-07T00:39:14.730Z,13.99
2017-08-07T00:39:19.083Z,13.99
2017-08-07T00:39:23.549Z,14.04
2017-08-07T00:39:28.020Z,14.02
2017-08-07T00:39:32.473Z,14.02
2017-08-07T00:39:36.950Z,14.02
2017-08-07T00:39:41.308Z,14.02
2017-08-07T00:39:46.070Z,13.99
2017-08-07T00:39:50.540Z,14.02
2017-08-07T00:39:55.026Z,14.05
2017-08-07T00:39:59.481Z,14.02
2017-08-07T00:40:03.952Z,14.02
2017-08-07T00:40:08.317Z,14.04
2017-08-07T00:40:12.793Z,14.02
2017-08-07T00:40:17.141Z,14.16
2017-08-07T00:40:21.600Z,13.99
2017-08-07T00:40:26.049Z,14.04
2017-08-07T00:40:30.385Z,14.08
2017-08-07T00:40:34.853Z,14.04
2017-08-07T00:40:39.312Z,13.94
2017-08-07T00:40:43.533Z,14.09
2017-08-07T00:40:48.018Z,14.02
2017-08-07T00:40:52.502Z,14.04
2017-08-07T00:40:56.839Z,14.06
2017-08-07T00:41:01.291Z,14.02
2017-08-07T00:41:05.638Z,14.08
2017-08-07T00:41:09.977Z,14.01
2017-08-07T00:41:14.437Z,14.02
2017-08-07T00:41:18.670Z,13.93
2017-08-07T00:41:23.147Z,14.02
2017-08-07T00:41:27.605Z,13.99
2017-08-07T00:41:31.951Z,14.02
2017-08-07T00:41:36.303Z,13.9
2017-08-07T00:41:40.764Z,14.01
2017-08-07T00:41:45.233Z,14.01
2017-08-07T00:41:49.705Z,13.91
2017-08-07T00:41:54.157Z,13.93
2017-08-07T00:41:58.619Z,13.99
2017-08-07T00:42:03.200Z,13.93
2017-08-07T00:42:07.557Z,13.93
2017-08-07T00:42:11.899Z,13.9
2017-08-07T00:42:16.364Z,13.93
2017-08-07T00:42:20.810Z,14.01
2017-08-07T00:42:25.261Z,14.01
2017-08-07T00:42:29.748Z,13.94
2017-08-07T00:42:34.213Z,13.93
2017-08-07T00:42:38.556Z,14.06
2017-08-07T00:42:43.027Z,13.93
2017-08-07T00:42:47.518Z,14.06
2017-08-07T00:42:51.739Z,14.06
2017-08-07T00:42:56.183Z,13.99
2017-08-07T00:43:00.668Z,13.96
2017-08-07T00:43:04.907Z,14.04
2017-08-07T00:43:09.376Z,14.09
2017-08-07T00:43:13.614Z,13.93
2017-08-07T00:43:17.951Z,14.02
2017-08-07T00:43:22.412Z,14.02
2017-08-07T00:43:26.881Z,13.96
2017-08-07T00:43:31.249Z,13.93
2017-08-07T00:43:35.583Z,14.01
2017-08-07T00:43:39.905Z,14.05
2017-08-07T00:43:44.372Z,13.94
2017-08-07T00:43:48.847Z,13.96
2017-08-07T00:43:53.182Z,14.04
2017-08-07T00:43:57.639Z,13.88
2017-08-07T00:44:02.226Z,13.93
2017-08-07T00:44:06.690Z,13.91
2017-08-07T00:44:11.045Z,14.02
2017-08-07T00:44:15.386Z,13.96
2017-08-07T00:44:19.736Z,14.01
2017-08-07T00:44:24.209Z,14.01
2017-08-07T00:44:28.677Z,13.93
2017-08-07T00:44:33.019Z,13.98
2017-08-07T00:44:37.369Z,13.94
2017-08-07T00:44:41.847Z,14.01
2017-08-07T00:44:45.846Z,13.99
2017-08-07T00:44:50.182Z,14.01
2017-08-07T00:44:54.519Z,14.01
2017-08-07T00:44:58.990Z,13.93
2017-08-07T00:45:03.352Z,14.05
2017-08-07T00:45:07.654Z,13.94
2017-08-07T00:45:12.107Z,13.94
2017-08-07T00:45:16.574Z,13.91
2017-08-07T00:45:21.047Z,13.87
2017-08-07T00:45:25.526Z,14.01
2017-08-07T00:45:29.985Z,13.9
2017-08-07T00:45:34.449Z,13.93
2017-08-07T00:45:38.800Z,13.93
2017-08-07T00:45:43.256Z,13.91
2017-08-07T00:45:47.587Z,14.04
2017-08-07T00:45:51.935Z,13.91
2017-08-07T00:45:56.177Z,14.01
2017-08-07T00:46:00.629Z,14.01
2017-08-07T00:46:05.263Z,14.02
2017-08-07T00:46:09.616Z,13.96
2017-08-07T00:46:13.966Z,13.94
2017-08-07T00:46:18.413Z,13.99
2017-08-07T00:46:22.884Z,14.01
2017-08-07T00:46:27.352Z,14.02
2017-08-07T00:46:31.836Z,14.01
2017-08-07T00:46:36.198Z,13.98
2017-08-07T00:46:40.668Z,13.96
2017-08-07T00:46:44.899Z,13.91
2017-08-07T00:46:49.375Z,14.01
2017-08-07T00:46:53.846Z,14.01
2017-08-07T00:46:58.170Z,13.96
2017-08-07T00:47:02.499Z,13.98
2017-08-07T00:47:06.845Z,13.96
2017-08-07T00:47:11.299Z,14.04
2017-08-07T00:47:15.769Z,13.99
2017-08-07T00:47:20.239Z,13.94
2017-08-07T00:47:24.692Z,13.93
2017-08-07T00:47:28.914Z,13.99
2017-08-07T00:47:33.401Z,13.98
2017-08-07T00:47:37.855Z,13.94
2017-08-07T00:47:42.089Z,14.01
2017-08-07T00:47:46.558Z,13.99
2017-08-07T00:47:50.897Z,13.93
2017-08-07T00:47:55.352Z,13.98
2017-08-07T00:47:59.667Z,14.02
2017-08-07T00:48:04.034Z,14.01
2017-08-07T00:48:08.500Z,14.01
2017-08-07T00:48:12.966Z,13.98
2017-08-07T00:48:17.439Z,13.94
2017-08-07T00:48:21.790Z,13.98
2017-08-07T00:48:26.253Z,14.02
2017-08-07T00:48:30.713Z,14.01
2017-08-07T00:48:35.165Z,13.88
2017-08-07T00:48:39.628Z,13.98
2017-08-07T00:48:43.969Z,13.93
2017-08-07T00:48:48.329Z,14.01
2017-08-07T00:48:52.675Z,14.01
2017-08-07T00:48:57.022Z,13.91
2017-08-07T00:49:01.485Z,13.94
2017-08-07T00:49:05.873Z,13.98
2017-08-07T00:49:10.234Z,13.98
2017-08-07T00:49:14.460Z,13.99
2017-08-07T00:49:18.817Z,13.94
2017-08-07T00:49:23.154Z,13.98
2017-08-07T00:49:27.499Z,13.91
2017-08-07T00:49:31.960Z,13.96
2017-08-07T00:49:36.410Z,13.98
2017-08-07T00:49:40.884Z,13.98
2017-08-07T00:49:45.539Z,13.88
2017-08-07T00:49:49.888Z,13.98
2017-08-07T00:49:54.235Z,13.94
2017-08-07T00:49:58.718Z,13.96
2017-08-07T00:50:02.997Z,13.93
2017-08-07T00:50:07.340Z,13.94
2017-08-07T00:50:11.709Z,13.99
2017-08-07T00:50:16.051Z,13.91
2017-08-07T00:50:20.503Z,13.9
2017-08-07T00:50:24.854Z,13.93
2017-08-07T00:50:29.302Z,13.99
2017-08-07T00:50:33.646Z,13.98
2017-08-07T00:50:37.994Z,13.98
2017-08-07T00:50:42.363Z,13.84
2017-08-07T00:50:46.814Z,13.99
2017-08-07T00:50:51.052Z,13.98
2017-08-07T00:50:55.414Z,13.93
2017-08-07T00:50:59.758Z,13.98
2017-08-07T00:51:04.224Z,13.96
2017-08-07T00:51:08.567Z,13.96
2017-08-07T00:51:13.066Z,14.01
2017-08-07T00:51:17.528Z,13.86
2017-08-07T00:51:21.862Z,13.99
2017-08-07T00:51:26.209Z,13.9
2017-08-07T00:51:30.559Z,13.87
2017-08-07T00:51:35.032Z,13.86
2017-08-07T00:51:39.506Z,14.02
2017-08-07T00:51:43.871Z,13.99
2017-08-07T00:51:48.208Z,13.91
2017-08-07T00:51:52.681Z,13.9
2017-08-07T00:51:57.025Z,13.94
2017-08-07T00:52:01.359Z,13.84
2017-08-07T00:52:05.832Z,13.96
2017-08-07T00:52:10.314Z,13.88
2017-08-07T00:52:14.771Z,13.96
2017-08-07T00:52:19.232Z,13.9
2017-08-07T00:52:23.698Z,13.86
2017-08-07T00:52:28.167Z,13.86
2017-08-07T00:52:32.632Z,13.88
2017-08-07T00:52:36.999Z,13.94
2017-08-07T00:52:41.357Z,13.93
2017-08-07T00:52:45.700Z,13.88
2017-08-07T00:52:50.173Z,13.91
2017-08-07T00:52:54.642Z,13.91
2017-08-07T00:52:59.112Z,13.87
2017-08-07T00:53:03.453Z,13.91
2017-08-07T00:53:07.909Z,13.84
2017-08-07T00:53:12.236Z,13.93
2017-08-07T00:53:16.571Z,13.93
2017-08-07T00:53:21.022Z,13.88
2017-08-07T00:53:25.471Z,13.91
2017-08-07T00:53:29.933Z,13.98
2017-08-07T00:53:34.403Z,13.94
2017-08-07T00:53:38.865Z,13.86
2017-08-07T00:53:43.339Z,13.88
2017-08-07T00:53:47.780Z,13.93
2017-08-07T00:53:52.246Z,13.84
2017-08-07T00:53:56.716Z,13.91
2017-08-07T00:54:01.171Z,13.81
2017-08-07T00:54:05.645Z,13.98
2017-08-07T00:54:09.987Z,13.91
2017-08-07T00:54:14.452Z,13.93
2017-08-07T00:54:18.930Z,13.91
2017-08-07T00:54:23.257Z,13.88
2017-08-07T00:54:27.720Z,13.88
2017-08-07T00:54:32.071Z,13.83
2017-08-07T00:54:36.584Z,13.83
2017-08-07T00:54:40.805Z,13.86
2017-08-07T00:54:45.278Z,13.88
2017-08-07T00:54:49.629Z,13.91
2017-08-07T00:54:53.965Z,13.9
2017-08-07T00:54:58.438Z,13.91
2017-08-07T00:55:02.935Z,13.91
2017-08-07T00:55:07.389Z,13.84
2017-08-07T00:55:11.860Z,13.86
2017-08-07T00:55:16.328Z,13.87
2017-08-07T00:55:20.798Z,13.87
2017-08-07T00:55:25.258Z,13.84
2017-08-07T00:55:29.598Z,13.86
2017-08-07T00:55:33.929Z,13.86
2017-08-07T00:55:38.375Z,13.86
2017-08-07T00:55:42.842Z,13.87
2017-08-07T00:55:47.311Z,13.87
2017-08-07T00:55:51.781Z,13.94
2017-08-07T00:55:56.123Z,13.83
2017-08-07T00:56:00.594Z,13.86
2017-08-07T00:56:05.048Z,13.86
2017-08-07T00:56:09.514Z,13.86
2017-08-07T00:56:13.863Z,13.88
2017-08-07T00:56:18.327Z,13.87
2017-08-07T00:56:22.664Z,13.86
2017-08-07T00:56:26.896Z,13.91
2017-08-07T00:56:31.237Z,13.83
2017-08-07T00:56:35.705Z,13.9
2017-08-07T00:56:40.055Z,13.88
2017-08-07T00:56:44.425Z,13.86
2017-08-07T00:56:48.654Z,13.9
2017-08-07T00:56:53.102Z,13.9